Weather at Ronneby Airport

Public forecast

Using degrees Celsius for public forecast. Weather courtesy of forecast.io.

Current aviation weather report (METAR) for Ronneby Airport

Retrieved 2021/02/25 01:20 UTC (0 seconds ago):

ESDF 250120Z AUTO 18003KT 9999 SCT070/// 08/07 Q1023

Aviation forecast (TAF) for Ronneby Airport

Forecast is more than 12 hours old.

Retrieved 2018/05/29 12:27 UTC (3 years ago):

TAF TAF ESDF 291425Z 2912/2924 07008KT CAVOK RMK MIL